Effective Sunday, March 17, 2024, the National Weather Service National Data Buoy Center will discontinue its Dial-A-Buoy Interactive Voice Response system. For more information, see Service Change Notice 24-06 (PDF).

Station JMLA2 - Juneau AML Dock Image indicating link to RSS feed of recent meteorological observations for station JMLA2


Conditions at JMLA2 as of
(3:52 am AKST)
1252 GMT on 03/03/2024:
     

Click on the graph icon in the table below to see a time series plot of the last five days of that observation.

5-day plot - Wind Direction Wind Direction (WDIR): NW ( 310 deg true )
5-day plot - Wind Speed Wind Speed (WSPD): 15.0 kts
5-day plot - Wind Gust Wind Gust (GST): 28.9 kts
5-day plot - Air Temperature Air Temperature (ATMP): 10.6 °F
5-day plot - Dew Point Dew Point (DEWP): -8.0 °F
5-day plot - Wind Chill Wind Chill (CHILL): -6.9 °F
5-day plot - Wind Speed at 10 Meters Wind Speed at 10 meters (WSPD10M): 13.6 kts
5-day plot - Wind Speed at 20 Meters Wind Speed at 20 meters (WSPD20M): 15.5 kts
5-day plot -  Wind Speed, Wind Gust and Atmospheric Pressure Combined plot of Wind Speed, Gust, and Air Pressure
Previous observations
TIME
(AKST)
5-day plot - Wind Direction
WDIR
 
5-day plot - Wind Speed
WSPD
kts
5-day plot - Wind Gust
GST
kts
5-day plot - Wave Height
WVHT
ft
5-day plot - Dominant Wave Period
DPD
sec
5-day plot - Average Wave Period
APD
sec
5-day plot - Mean Wave Direction
MWD
 
5-day plot - Atmospheric Pressure
PRES
in
5-day plot - Pressure Tendency
PTDY
in
5-day plot - Air Temperature
ATMP
°F
5-day plot - Water Temperature
WTMP
°F
5-day plot - Dew Point
DEWP
°F
5-day plot - Salinity
SAL
psu
5-day plot - Visibility
VIS
nmi
5-day plot - Tide (above MLLW)
TIDE
ft
2024-03-03 03:42 am W 14.0 26.0------ 10.6- -7.8---
2024-03-03 03:32 am W 9.9 22.0------ 10.4- -8.9---
2024-03-03 03:22 am W 13.0 29.9------ 10.6- -8.5---
2024-03-03 03:12 am W 11.1 22.9------ 10.8- -7.8---
2024-03-03 03:02 amWNW 11.1 22.9------ 10.8- -7.4---
2024-03-03 02:52 am W 8.0 21.0------ 10.8- -7.8---
2024-03-03 02:42 amWNW 11.1 24.1------ 10.8- -7.2---
2024-03-03 02:32 am E 12.0 39.0------ 10.6- -9.4---
2024-03-03 02:22 amWNW 14.0 26.0------ 10.8- -7.4---
2024-03-03 02:12 amWNW 15.0 36.9------ 10.6- -8.5---
2024-03-03 02:02 am NW 12.0 28.0------ 10.8- -8.3---
2024-03-03 01:52 am W 14.0 32.1------ 10.9- -7.4---
2024-03-03 01:42 am N 11.1 34.0------ 10.8- -8.1---
2024-03-03 01:32 amWNW 15.0 35.0------ 10.9- -8.1---
2024-03-03 01:22 amWNW 15.9 32.1------ 11.1- -7.1---
2024-03-03 01:12 am W 18.1 42.9------ 10.9- -7.4---
2024-03-03 01:02 amWNW 15.0 31.1------ 10.9- -7.8---
2024-03-03 12:52 am W 12.0 24.1------ 11.1- -7.6---
2024-03-03 12:42 amWNW 15.9 27.0------ 11.3- -7.1---
2024-03-03 12:32 am W 14.0 27.0------ 11.3- -7.1---
2024-03-03 12:22 am NW 15.0 27.0------ 11.5- -7.4---
2024-03-03 12:12 amWNW 19.0 39.0------ 11.5- -7.4---
2024-03-03 12:02 amWNW 17.1 35.0------ 11.5- -7.1---
2024-03-02 11:52 pm NW 15.0 39.0------ 11.5- -7.1---
2024-03-02 11:42 pmWNW 18.1 35.9------ 11.7- -6.7---
2024-03-02 11:32 pmWNW 14.0 27.0------ 12.0- -6.7---
2024-03-02 11:22 pmWNW 14.0 21.0------ 12.2- -6.3---
2024-03-02 11:12 pmWNW 12.0 24.1------ 12.6- -4.9---
2024-03-02 11:02 pmWNW 12.0 27.0------ 12.2- -6.3---
2024-03-02 10:52 pm SE 12.0 31.1------ 12.2- -7.1---
2024-03-02 10:42 pm SW 8.0 22.9------ 12.2- -6.5---
2024-03-02 10:32 pmSSE 8.9 22.9------ 12.6- -6.5---
2024-03-02 10:22 pm W 8.9 20.0------ 12.9- -5.4---
2024-03-02 10:12 pm SW 9.9 28.0------ 12.7- -6.5---
2024-03-02 10:02 pm SW 8.9 24.1------ 13.1- -5.6---
2024-03-02 09:52 pm W 9.9 25.1------ 13.3- -5.8---
2024-03-02 09:42 pmWSW 8.9 24.1------ 13.5- -5.6---
2024-03-02 09:32 pmWNW 11.1 28.0------ 13.6- -5.1---
2024-03-02 09:22 pmWNW 12.0 27.0------ 13.6- -5.6---
2024-03-02 09:12 pmWNW 12.0 24.1------ 14.0- -5.1---
2024-03-02 09:02 pmWNW 15.0 27.0------ 14.0- -5.1---
2024-03-02 08:52 pm W 13.0 28.0------ 14.2- -4.2---
2024-03-02 08:42 pmWNW 9.9 24.1------ 14.2- -4.4---
2024-03-02 08:32 pmWNW 12.0 35.0------ 14.2- -4.9---
2024-03-02 08:22 pm W 9.9 26.0------ 14.4- -4.7---
2024-03-02 08:12 pmWNW 11.1 22.0------ 14.4- -4.7---
2024-03-02 07:52 pmWNW 12.0 32.1------ 14.4- -4.9---
2024-03-02 07:42 pmWNW 15.0 34.0------ 14.5- -5.3---
2024-03-02 07:32 pm N 12.0 27.0------ 14.4- -6.0---
2024-03-02 07:22 pm W 11.1 28.9------ 14.5- -5.8---
2024-03-02 07:12 pmWNW 11.1 24.1------ 14.7- -5.4---
2024-03-02 07:02 pmWNW 13.0 28.9------ 14.7- -5.1---
2024-03-02 06:52 pmWNW 11.1 28.9------ 14.7- -5.4---
2024-03-02 06:42 pm N 9.9 28.0------ 14.5- -6.2---
2024-03-02 06:32 pm W 8.9 24.1------ 14.5- -5.3---
2024-03-02 06:22 pm NW 11.1 28.0------ 14.5- -5.6---
2024-03-02 06:12 pm W 9.9 24.1------ 14.4- -5.6---
2024-03-02 06:02 pmWNW 8.9 24.1------ 14.5- -5.6---
2024-03-02 05:52 pm N 9.9 27.0------ 14.5- -6.0---
2024-03-02 05:42 pm N 15.0 35.9------ 14.4- -6.3---
2024-03-02 05:32 pmNNE 11.1 24.1------ 14.5- -6.2---
2024-03-02 05:22 pmNNE 11.1 31.1------ 14.5- -6.2---
2024-03-02 05:12 pm NW 8.9 28.9------ 14.5- -6.2---
2024-03-02 05:02 pmNNE 12.0 29.9------ 14.5- -6.3---
2024-03-02 04:52 pmNNE 13.0 28.9------ 14.7- -6.3---
2024-03-02 04:42 pm NW 12.0 34.0------ 14.7- -6.0---
2024-03-02 04:32 pm W 11.1 29.9------ 15.3- -4.4---
2024-03-02 04:22 pm W 8.9 27.0------ 15.1- -5.3---
2024-03-02 04:12 pm W 11.1 29.9------ 15.1- -5.6---
2024-03-02 04:02 pmNNE 12.0 34.0------ 15.3- -5.8---
2024-03-02 03:52 pm NW 12.0 32.1------ 15.3- -5.4---
2024-03-02 03:42 pm NW 12.0 29.9------ 15.3- -5.4---
2024-03-02 03:32 pmWNW 12.0 28.9------ 15.6- -5.3---
2024-03-02 03:22 pm NW 14.0 36.9------ 15.4- -5.3---
2024-03-02 03:12 pmNNE 13.0 32.1------ 15.4- -6.0---
2024-03-02 02:52 pm N 14.0 35.0------ 15.3- -6.0---
2024-03-02 02:42 pmNNE 20.0 38.1------ 15.1- -6.2---
2024-03-02 02:32 pmNNE 18.1 36.9------ 15.3- -6.0---
2024-03-02 02:22 pm N 15.9 42.0------ 15.4- -5.6---
2024-03-02 02:12 pmNNE 15.0 38.1------ 15.1- -5.8---
2024-03-02 02:02 pm N 15.0 34.0------ 15.3- -5.6---
2024-03-02 01:52 pm N 15.9 42.9------ 15.4- -5.6---
2024-03-02 01:42 pm N 15.9 41.0------ 15.4- -5.6---
2024-03-02 01:32 pm N 14.0 32.1------ 15.4- -5.3---
2024-03-02 01:22 pm N 14.0 31.1------ 15.4- -5.3---
2024-03-02 01:12 pm N 12.0 35.0------ 15.3- -5.6---
2024-03-02 01:02 pm N 11.1 28.9------ 15.4- -6.0---
2024-03-02 12:52 pm N 15.9 31.1------ 15.3- -6.0---
2024-03-02 12:42 pmNNE 18.1 35.0------ 15.3- -6.2---
2024-03-02 12:32 pm N 12.0 28.0------ 15.4- -6.2---
2024-03-02 12:22 pmNNE 11.1 25.1------ 15.4- -6.2---
2024-03-02 12:12 pm N 14.0 41.0------ 15.4- -6.2---
2024-03-02 12:02 pmNNE 14.0 32.1------ 15.4- -6.3---
2024-03-02 11:52 amNNE 14.0 29.9------ 15.4- -6.0---
2024-03-02 11:42 am N 15.0 35.9------ 15.8- -5.8---
2024-03-02 11:32 am N 15.0 33.0------ 15.6- -5.6---
2024-03-02 11:22 am N 14.0 38.1------ 15.6- -5.6---
2024-03-02 11:12 am N 18.1 38.1------ 15.4- -6.0---
2024-03-02 11:02 am NE 14.0 36.9------ 15.4- -6.2---
2024-03-02 10:52 amNNE 11.1 28.9------ 15.4- -5.8---
2024-03-02 10:42 am N 19.0 42.0------ 15.6- -5.8---
2024-03-02 10:32 amNNW 14.0 39.0------ 15.4- -6.0---
2024-03-02 10:22 am N 12.0 25.1------ 15.6- -5.8---
2024-03-02 10:12 am N 12.0 33.0------ 15.4- -6.0---
2024-03-02 10:02 am N 12.0 40.0------ 15.6- -5.4---
2024-03-02 09:52 amNNE 8.9 25.1------ 15.6- -6.0---
2024-03-02 09:42 am N 12.0 40.0------ 15.4- -5.8---
2024-03-02 09:32 amNNE 13.0 31.1------ 15.4- -5.8---
2024-03-02 09:22 am N 12.0 31.1------ 15.4- -6.0---
2024-03-02 09:12 amNNE 11.1 34.0------ 15.6- -5.8---
2024-03-02 09:02 amNNE 13.0 33.0------ 15.6- -5.6---
2024-03-02 08:52 am N 14.0 42.0------ 15.8- -5.1---
2024-03-02 08:42 amNNE 13.0 49.9------ 15.8- -5.4---
2024-03-02 08:32 am N 13.0 35.0------ 15.8- -5.3---
2024-03-02 08:22 am N 14.0 39.0------ 15.8- -5.4---
2024-03-02 08:12 am NW 17.1 42.9------ 15.8- -5.3---
2024-03-02 08:02 am N 14.0 39.0------ 15.8- -5.4---
2024-03-02 07:52 amNNW 15.9 40.0------ 15.8- -5.3---
2024-03-02 07:42 amNNW 14.0 34.0------ 15.8- -5.1---
2024-03-02 07:32 amNNE 12.0 29.9------ 15.8- -5.6---
2024-03-02 07:22 am N 17.1 45.1------ 16.0- -5.6---
2024-03-02 07:12 amNNW 15.0 35.0------ 16.0- -5.3---
2024-03-02 07:02 am N 14.0 39.0------ 16.0- -5.3---
2024-03-02 06:52 am N 12.0 32.1------ 16.0- -5.3---
2024-03-02 06:42 am N 12.0 32.1------ 16.2- -4.7---
2024-03-02 06:32 amNNE 17.1 41.0------ 16.3- -4.9---
2024-03-02 06:22 am N 9.9 34.0------ 16.5- -4.9---
2024-03-02 06:12 am N 12.0 32.1------ 16.5- -4.5---
2024-03-02 06:02 amNNE 11.1 29.9------ 16.5- -4.2---
2024-03-02 05:52 amNNE 12.0 33.0------ 16.5- -4.5---
2024-03-02 05:42 am W 8.0 31.1------ 16.7- -4.2---
2024-03-02 05:32 amENE 13.0 42.0------ 16.9- -3.8---
2024-03-02 05:22 am NE 13.0 34.0------ 16.7- -3.8---
2024-03-02 05:12 am N 11.1 32.1------ 16.9- -3.5---
2024-03-02 05:02 amWSW 8.0 18.1------ 17.2- -2.4---
2024-03-02 04:52 amESE 13.0 28.9------ 17.1- -3.8---
2024-03-02 04:42 amNNW 8.9 28.0------ 17.1- -3.6---
2024-03-02 04:32 amNNW 11.1 38.1------ 17.1- -3.6---
2024-03-02 04:22 am N 9.9 27.0------ 17.2- -3.6---
2024-03-02 04:12 am N 11.1 24.1------ 17.4- -3.3---
2024-03-02 04:02 amNNE 11.1 29.9------ 17.4- -3.5---
2024-03-02 03:52 amNNE 13.0 35.0------ 17.6- -3.5---